createdAt,value
2023-12-11T04:00:27.665Z,1.35
2023-12-11T04:02:56.964Z,1.30
2023-12-11T04:05:24.828Z,1.38
2023-12-11T04:07:52.742Z,1.70
2023-12-11T04:10:20.691Z,1.55
2023-12-11T04:12:48.652Z,1.80
2023-12-11T04:15:16.603Z,1.45
2023-12-11T04:17:44.651Z,1.60
2023-12-11T04:20:14.198Z,1.30
2023-12-11T04:22:42.144Z,1.50
2023-12-11T04:25:10.511Z,1.45
2023-12-11T04:27:38.476Z,1.38
2023-12-11T04:30:07.693Z,1.25
2023-12-11T04:32:35.723Z,1.30
2023-12-11T04:35:02.743Z,1.60
2023-12-11T04:37:32.219Z,3.80
2023-12-11T04:40:00.293Z,2.40
2023-12-11T04:42:28.186Z,2.03
2023-12-11T04:44:56.348Z,1.80
2023-12-11T04:47:24.234Z,1.98
2023-12-11T04:49:52.315Z,2.08
2023-12-11T04:52:20.347Z,2.00
2023-12-11T04:54:49.651Z,2.03
2023-12-11T04:57:17.694Z,1.80
2023-12-11T04:59:45.571Z,1.60
2023-12-11T05:02:13.433Z,1.70
2023-12-11T05:04:41.292Z,1.92
2023-12-11T05:07:09.281Z,1.83
2023-12-11T05:09:37.242Z,1.55
2023-12-11T05:12:07.127Z,1.50
2023-12-11T05:14:35.068Z,1.20
2023-12-11T05:17:02.976Z,1.58
2023-12-11T05:19:30.886Z,1.33
2023-12-11T05:21:59.888Z,1.63
2023-12-11T05:24:27.851Z,1.63
2023-12-11T05:26:56.579Z,1.48
2023-12-11T05:29:25.768Z,1.60
2023-12-11T05:31:53.641Z,1.42
2023-12-11T05:34:21.691Z,1.67
2023-12-11T05:36:49.696Z,1.35
2023-12-11T05:39:17.610Z,1.45
2023-12-11T05:41:45.473Z,1.60
2023-12-11T05:44:13.452Z,1.75
2023-12-11T05:46:42.665Z,1.60
2023-12-11T05:49:11.146Z,1.92
2023-12-11T05:51:39.236Z,1.40
2023-12-11T05:54:07.179Z,1.70
2023-12-11T05:56:35.140Z,1.70
2023-12-11T05:59:03.396Z,1.83
2023-12-11T06:01:31.483Z,1.88
2023-12-11T06:04:01.966Z,1.50
2023-12-11T06:06:31.841Z,1.65
2023-12-11T06:09:00.101Z,1.40
2023-12-11T06:11:27.980Z,1.55
2023-12-11T06:13:55.847Z,1.67
2023-12-11T06:16:23.718Z,2.08
2023-12-11T06:18:51.808Z,1.83
2023-12-11T06:21:21.452Z,1.95
2023-12-11T06:23:49.604Z,2.20
2023-12-11T06:26:27.333Z,2.85
2023-12-11T06:28:55.270Z,2.47
2023-12-11T06:31:23.128Z,2.75
2023-12-11T06:33:51.073Z,2.58
2023-12-11T06:36:19.070Z,3.30
2023-12-11T06:38:48.290Z,3.83
2023-12-11T06:41:16.154Z,5.43
2023-12-11T06:43:44.363Z,7.60
2023-12-11T06:46:14.070Z,9.30
2023-12-11T06:48:42.207Z,9.00
2023-12-11T06:51:10.190Z,8.88
2023-12-11T06:53:38.363Z,10.00
2023-12-11T06:56:08.603Z,11.05
2023-12-11T06:58:36.465Z,14.60
2023-12-11T07:01:04.871Z,11.25
2023-12-11T07:03:32.872Z,12.32
2023-12-11T07:06:00.966Z,8.90
2023-12-11T07:08:28.871Z,8.27
2023-12-11T07:10:56.875Z,7.88
2023-12-11T07:13:26.153Z,7.68
2023-12-11T07:15:54.833Z,5.18
2023-12-11T07:18:23.235Z,4.75
2023-12-11T07:20:51.194Z,8.98
2023-12-11T07:23:19.167Z,7.70
2023-12-11T07:25:48.311Z,7.22
2023-12-11T07:28:16.285Z,5.68
2023-12-11T07:30:45.635Z,2.85
2023-12-11T07:33:13.653Z,3.08
2023-12-11T07:35:41.610Z,2.67
2023-12-11T07:38:09.501Z,2.85
2023-12-11T07:40:37.443Z,2.20
2023-12-11T07:43:08.023Z,2.50
2023-12-11T07:45:36.337Z,2.20
2023-12-11T07:48:06.457Z,1.90
2023-12-11T07:50:34.610Z,2.80
2023-12-11T07:53:02.842Z,6.17
2023-12-11T07:55:30.804Z,6.00
2023-12-11T07:57:59.539Z,6.13
2023-12-11T08:00:27.507Z,3.53
2023-12-11T08:02:55.756Z,9.32
2023-12-11T08:05:25.096Z,3.35
2023-12-11T08:07:53.182Z,2.60
2023-12-11T08:10:21.454Z,3.05
2023-12-11T08:12:52.832Z,3.28
2023-12-11T08:15:20.875Z,2.30
2023-12-11T08:17:48.787Z,2.20
2023-12-11T08:20:18.364Z,1.80
2023-12-11T08:22:48.915Z,2.13
2023-12-11T08:25:16.884Z,1.60
2023-12-11T08:27:44.970Z,2.00
2023-12-11T08:30:13.498Z,1.70
2023-12-11T08:32:41.745Z,1.85
2023-12-11T08:35:10.896Z,1.40
2023-12-11T08:37:38.844Z,2.28
2023-12-11T08:40:10.086Z,1.67
2023-12-11T08:42:41.101Z,1.80
2023-12-11T08:45:10.695Z,1.50
2023-12-11T08:47:43.076Z,1.70
2023-12-11T08:50:12.944Z,1.85
2023-12-11T08:52:43.263Z,1.95
2023-12-11T08:55:13.351Z,1.77
2023-12-11T08:57:43.890Z,1.42
2023-12-11T09:00:13.252Z,2.00
2023-12-11T09:02:41.186Z,1.45
2023-12-11T09:05:10.268Z,1.75
2023-12-11T09:07:38.334Z,1.55
2023-12-11T09:10:08.669Z,1.67
2023-12-11T09:12:38.349Z,1.83
2023-12-11T09:15:07.549Z,2.13
2023-12-11T09:17:35.944Z,1.90
2023-12-11T09:20:05.486Z,1.60
2023-12-11T09:22:33.528Z,1.70
2023-12-11T09:25:01.528Z,1.90
2023-12-11T09:27:29.940Z,1.60
2023-12-11T09:29:59.357Z,2.10
2023-12-11T09:32:27.492Z,1.75
2023-12-11T09:34:55.817Z,1.67
2023-12-11T09:37:23.954Z,2.03
2023-12-11T09:39:52.058Z,1.95
2023-12-11T09:42:20.776Z,2.40
2023-12-11T09:44:49.685Z,2.13
2023-12-11T09:47:25.638Z,1.40
2023-12-11T09:49:53.850Z,2.13
2023-12-11T09:52:23.939Z,2.00
2023-12-11T09:54:52.028Z,1.65
2023-12-11T09:57:20.140Z,1.75
2023-12-11T09:59:51.888Z,1.67
2023-12-11T10:02:21.397Z,1.98
2023-12-11T10:05:05.157Z,1.65
2023-12-11T10:07:33.992Z,1.70
2023-12-11T10:10:17.408Z,1.58
2023-12-11T10:12:45.403Z,1.77
2023-12-11T10:15:13.332Z,1.63
2023-12-11T10:17:42.739Z,1.98
2023-12-11T10:20:17.464Z,2.20
2023-12-11T10:22:45.511Z,2.08
2023-12-11T10:25:13.951Z,1.73
2023-12-11T10:27:42.039Z,1.40
2023-12-11T10:30:12.230Z,1.90
2023-12-11T10:32:40.226Z,1.60
2023-12-11T10:35:10.372Z,1.90
2023-12-11T10:37:47.525Z,1.98
2023-12-11T10:40:15.511Z,1.67
2023-12-11T10:42:43.493Z,1.90
2023-12-11T10:45:11.599Z,1.67
2023-12-11T10:47:42.190Z,1.90
2023-12-11T10:50:11.985Z,2.08
2023-12-11T10:52:41.443Z,1.75
2023-12-11T10:55:10.339Z,1.55
2023-12-11T10:57:38.869Z,1.83
2023-12-11T11:00:10.350Z,1.83
2023-12-11T11:02:39.196Z,1.90
2023-12-11T11:05:08.104Z,1.65
2023-12-11T11:07:41.307Z,1.52
2023-12-11T11:10:17.067Z,1.77
2023-12-11T11:12:51.027Z,1.52
2023-12-11T11:15:22.583Z,1.70
2023-12-11T11:18:01.559Z,1.70
2023-12-11T11:20:30.482Z,1.90
2023-12-11T11:23:27.571Z,1.23
2023-12-11T11:25:56.013Z,1.70
2023-12-11T11:28:38.805Z,2.00
2023-12-11T11:31:15.834Z,1.55
2023-12-11T11:33:56.098Z,1.40
2023-12-11T11:36:48.830Z,1.60
2023-12-11T11:39:16.940Z,1.65
2023-12-11T11:41:45.918Z,1.60
2023-12-11T11:44:16.976Z,1.90
2023-12-11T11:46:55.551Z,1.63
2023-12-11T11:49:32.607Z,1.50
2023-12-11T11:52:06.369Z,1.45
2023-12-11T11:54:38.345Z,1.70
2023-12-11T11:57:07.348Z,1.63
2023-12-11T11:59:44.304Z,1.52
2023-12-11T12:02:12.849Z,1.58
2023-12-11T12:04:40.855Z,1.80
2023-12-11T12:07:10.277Z,1.80
2023-12-11T12:09:38.851Z,1.50
2023-12-11T12:12:08.051Z,1.38
2023-12-11T12:14:36.026Z,1.60
2023-12-11T12:17:10.970Z,2.15
2023-12-11T12:20:12.764Z,1.83
2023-12-11T12:22:55.077Z,1.48
2023-12-11T12:25:24.208Z,1.63
2023-12-11T12:27:58.578Z,1.50
2023-12-11T12:30:28.657Z,1.65
2023-12-11T12:32:57.644Z,2.00
2023-12-11T12:35:26.803Z,1.88
2023-12-11T12:37:57.835Z,1.30
2023-12-11T12:40:25.970Z,1.33
2023-12-11T12:42:54.116Z,1.30
2023-12-11T12:45:35.936Z,1.60
2023-12-11T12:48:10.810Z,1.40
2023-12-11T12:50:39.163Z,1.90
2023-12-11T12:53:11.859Z,1.80
2023-12-11T12:55:41.243Z,1.83
2023-12-11T12:58:10.009Z,1.90
2023-12-11T13:00:41.194Z,1.88
2023-12-11T13:03:09.611Z,2.22
2023-12-11T13:05:42.859Z,3.55
2023-12-11T13:08:12.644Z,1.50
2023-12-11T13:10:40.590Z,1.65
2023-12-11T13:13:14.852Z,4.40
2023-12-11T13:15:43.432Z,5.30
2023-12-11T13:18:16.213Z,1.90
2023-12-11T13:20:44.926Z,2.42
2023-12-11T13:23:14.355Z,2.00
2023-12-11T13:25:42.411Z,2.63
2023-12-11T13:28:10.346Z,1.35
2023-12-11T13:30:38.336Z,1.65
2023-12-11T13:33:06.385Z,1.75
2023-12-11T13:35:34.365Z,1.70
2023-12-11T13:38:02.286Z,1.80
2023-12-11T13:40:31.639Z,1.60
2023-12-11T13:42:59.653Z,1.42
2023-12-11T13:45:28.779Z,1.35
2023-12-11T13:47:56.810Z,1.77
2023-12-11T13:50:24.856Z,2.10
2023-12-11T13:52:52.863Z,2.20
2023-12-11T13:55:20.964Z,1.65
2023-12-11T13:57:50.260Z,1.58
2023-12-11T14:00:18.636Z,2.10
2023-12-11T14:03:00.602Z,1.90
2023-12-11T14:05:32.214Z,1.80
2023-12-11T14:08:00.324Z,1.90
2023-12-11T14:10:28.383Z,1.33
2023-12-11T14:12:58.285Z,2.15
2023-12-11T14:15:26.876Z,2.20
2023-12-11T14:17:55.645Z,1.90
2023-12-11T14:20:23.672Z,2.20
2023-12-11T14:22:51.659Z,2.30
2023-12-11T14:25:19.806Z,1.77
2023-12-11T14:27:47.815Z,1.58
2023-12-11T14:30:17.458Z,1.90
2023-12-11T14:32:46.722Z,1.45
2023-12-11T14:35:16.815Z,1.35
2023-12-11T14:38:12.465Z,1.42
2023-12-11T14:40:42.533Z,1.55
2023-12-11T14:43:12.496Z,4.35
2023-12-11T14:45:45.602Z,2.83
2023-12-11T14:48:13.884Z,2.25
2023-12-11T14:50:44.373Z,3.53
2023-12-11T14:53:39.554Z,1.48
2023-12-11T14:56:08.680Z,1.80
2023-12-11T14:58:37.103Z,3.00
2023-12-11T15:01:06.733Z,1.80
2023-12-11T15:03:34.840Z,1.92
2023-12-11T15:06:06.817Z,3.00
2023-12-11T15:08:34.883Z,3.15
2023-12-11T15:11:02.833Z,2.72
2023-12-11T15:13:31.695Z,1.90
2023-12-11T15:16:01.525Z,1.63
2023-12-11T15:18:31.120Z,1.60
2023-12-11T15:20:59.229Z,1.90
2023-12-11T15:23:27.203Z,2.33
2023-12-11T15:25:55.182Z,1.52
2023-12-11T15:28:23.320Z,2.38
2023-12-11T15:30:51.374Z,2.17
2023-12-11T15:33:19.446Z,1.95
2023-12-11T15:35:48.739Z,1.48
2023-12-11T15:38:16.657Z,1.88
2023-12-11T15:40:45.195Z,1.90
2023-12-11T15:43:13.220Z,1.77
2023-12-11T15:45:41.317Z,1.90
2023-12-11T15:48:09.902Z,1.35
2023-12-11T15:50:53.863Z,1.50
2023-12-11T15:53:21.825Z,2.20
2023-12-11T15:55:49.838Z,1.40
2023-12-11T15:58:18.028Z,1.48
2023-12-11T16:00:46.305Z,1.55
2023-12-11T16:03:14.326Z,1.45
2023-12-11T16:05:42.339Z,1.58
2023-12-11T16:08:11.626Z,3.00
2023-12-11T16:10:39.524Z,3.40
2023-12-11T16:13:07.454Z,3.40
2023-12-11T16:15:35.429Z,3.20
2023-12-11T16:18:03.508Z,2.45
2023-12-11T16:20:31.472Z,1.73
2023-12-11T16:22:59.377Z,2.03
2023-12-11T16:25:28.866Z,1.60
2023-12-11T16:27:57.025Z,1.80
2023-12-11T16:30:25.056Z,1.52
2023-12-11T16:32:53.025Z,1.77
2023-12-11T16:35:22.406Z,1.98
2023-12-11T16:37:52.336Z,1.63
2023-12-11T16:40:20.503Z,2.33
2023-12-11T16:42:49.821Z,2.05
2023-12-11T16:45:17.742Z,2.40
2023-12-11T16:47:54.982Z,1.75
2023-12-11T16:50:23.352Z,1.90
2023-12-11T16:52:52.121Z,2.83
2023-12-11T16:55:20.129Z,2.30
2023-12-11T16:57:49.553Z,2.53
2023-12-11T17:00:18.123Z,1.92
2023-12-11T17:02:46.028Z,2.67
2023-12-11T17:05:14.191Z,2.08
2023-12-11T17:07:43.849Z,2.40
2023-12-11T17:10:11.880Z,2.30
2023-12-11T17:12:39.861Z,2.50
2023-12-11T17:15:10.490Z,2.55
2023-12-11T17:17:38.981Z,2.40
2023-12-11T17:20:08.381Z,2.67
2023-12-11T17:22:36.287Z,3.55
2023-12-11T17:25:04.965Z,3.42
2023-12-11T17:27:33.291Z,2.70
2023-12-11T17:30:03.723Z,2.92
2023-12-11T17:32:34.032Z,2.08
2023-12-11T17:35:04.465Z,2.10
2023-12-11T17:37:32.572Z,2.25
2023-12-11T17:40:01.229Z,2.30
2023-12-11T17:42:31.765Z,2.25
2023-12-11T17:45:00.461Z,2.60
2023-12-11T17:47:28.449Z,2.50
2023-12-11T17:49:58.118Z,2.05
2023-12-11T17:52:26.136Z,1.83
2023-12-11T17:54:54.131Z,2.03
2023-12-11T17:57:22.416Z,2.83
2023-12-11T17:59:50.425Z,2.58
2023-12-11T18:02:18.371Z,2.30
2023-12-11T18:04:46.396Z,2.25
2023-12-11T18:07:16.245Z,2.05
2023-12-11T18:09:44.206Z,2.00
2023-12-11T18:12:12.527Z,1.90
2023-12-11T18:14:40.404Z,1.85
2023-12-11T18:17:08.654Z,2.20
2023-12-11T18:19:36.631Z,2.08
2023-12-11T18:22:07.675Z,1.88
2023-12-11T18:24:37.353Z,1.73
2023-12-11T18:27:05.532Z,1.35
2023-12-11T18:29:33.442Z,2.05
2023-12-11T18:32:01.390Z,2.25
2023-12-11T18:34:39.719Z,1.77
2023-12-11T18:37:15.511Z,2.28
2023-12-11T18:39:45.657Z,2.33
2023-12-11T18:42:13.921Z,2.65
2023-12-11T18:44:44.018Z,2.20
2023-12-11T18:47:11.973Z,2.08
2023-12-11T18:49:42.421Z,2.92
2023-12-11T18:52:11.198Z,3.10
2023-12-11T18:54:39.181Z,2.83
2023-12-11T18:57:12.428Z,2.40
2023-12-11T18:59:40.378Z,2.20
2023-12-11T19:02:09.097Z,2.47
2023-12-11T19:04:37.381Z,2.00
2023-12-11T19:07:06.025Z,2.20
2023-12-11T19:09:34.007Z,2.15
2023-12-11T19:12:02.001Z,2.25
2023-12-11T19:14:31.248Z,2.58
2023-12-11T19:16:59.235Z,2.35
2023-12-11T19:19:27.202Z,2.60
2023-12-11T19:21:55.181Z,2.10
2023-12-11T19:24:23.089Z,2.50
2023-12-11T19:26:50.991Z,1.95
2023-12-11T19:29:18.939Z,2.17
2023-12-11T19:31:48.361Z,2.10
2023-12-11T19:34:16.964Z,2.20
2023-12-11T19:36:45.434Z,2.17
2023-12-11T19:39:13.802Z,2.63
2023-12-11T19:41:43.727Z,2.15
2023-12-11T19:44:11.888Z,2.35
2023-12-11T19:46:44.473Z,2.10
2023-12-11T19:49:14.170Z,2.15
2023-12-11T19:51:44.995Z,1.73
2023-12-11T19:54:12.978Z,2.00
2023-12-11T19:56:41.759Z,2.55
2023-12-11T19:59:10.261Z,2.40
2023-12-11T20:01:38.314Z,2.38
2023-12-11T20:04:07.167Z,2.53
2023-12-11T20:06:36.589Z,2.67
2023-12-11T20:09:04.667Z,2.47
2023-12-11T20:11:33.086Z,2.50
2023-12-11T20:14:01.297Z,2.50
2023-12-11T20:16:30.167Z,2.47
2023-12-11T20:18:58.278Z,2.28
2023-12-11T20:21:26.365Z,2.63
2023-12-11T20:23:55.645Z,3.10
2023-12-11T20:26:24.453Z,2.22
2023-12-11T20:28:52.552Z,2.20
2023-12-11T20:31:21.186Z,2.88
2023-12-11T20:33:49.434Z,2.65
2023-12-11T20:36:18.562Z,2.50
2023-12-11T20:38:47.012Z,2.65
2023-12-11T20:41:20.616Z,2.60
2023-12-11T20:43:49.198Z,3.05
2023-12-11T20:46:24.252Z,2.90
2023-12-11T20:48:53.786Z,2.85
2023-12-11T20:51:23.799Z,3.00
2023-12-11T20:53:52.878Z,2.80
2023-12-11T20:56:23.588Z,2.42
2023-12-11T20:58:53.291Z,3.28
2023-12-11T21:01:28.614Z,3.50
2023-12-11T21:03:57.239Z,3.03
2023-12-11T21:06:25.712Z,2.63
2023-12-11T21:08:54.644Z,2.50
2023-12-11T21:11:24.531Z,2.80
2023-12-11T21:13:52.488Z,2.92
2023-12-11T21:16:21.053Z,2.95
2023-12-11T21:18:50.552Z,3.22
2023-12-11T21:21:19.416Z,2.47
2023-12-11T21:23:47.515Z,2.65
2023-12-11T21:26:15.860Z,2.80
2023-12-11T21:28:45.369Z,2.45
2023-12-11T21:31:22.630Z,3.45
2023-12-11T21:33:52.284Z,2.88
2023-12-11T21:36:21.162Z,2.50
2023-12-11T21:38:49.466Z,3.00
2023-12-11T21:41:17.875Z,3.20
2023-12-11T21:43:48.785Z,2.92
2023-12-11T21:46:16.970Z,3.05
2023-12-11T21:48:45.681Z,2.72
2023-12-11T21:51:15.874Z,2.22
2023-12-11T21:53:44.006Z,2.40
2023-12-11T21:56:12.238Z,2.58
2023-12-11T21:58:41.691Z,2.58
2023-12-11T22:01:11.262Z,2.20
2023-12-11T22:03:39.408Z,1.88
2023-12-11T22:06:08.103Z,2.20
2023-12-11T22:08:36.040Z,2.20
2023-12-11T22:11:03.961Z,2.40
2023-12-11T22:13:31.854Z,2.40
2023-12-11T22:15:59.845Z,2.40
2023-12-11T22:18:29.292Z,2.55
2023-12-11T22:20:57.347Z,2.47
2023-12-11T22:23:25.280Z,2.25
2023-12-11T22:25:53.219Z,2.33
2023-12-11T22:28:21.154Z,2.60
2023-12-11T22:30:49.159Z,2.55
2023-12-11T22:33:17.142Z,2.00
2023-12-11T22:35:46.406Z,2.67
2023-12-11T22:38:14.404Z,2.50
2023-12-11T22:40:42.419Z,2.42
2023-12-11T22:43:10.350Z,2.70
2023-12-11T22:45:38.657Z,3.80
2023-12-11T22:48:07.318Z,5.15
2023-12-11T22:50:35.413Z,5.38
2023-12-11T22:53:04.718Z,4.35
2023-12-11T22:55:33.356Z,3.25
2023-12-11T22:58:09.828Z,2.35
